Time;durP1;ratioP1;P1;durP2;ratioP2;P2;SDS_P1;SDS_P2;PMS_P1;PMS_P2;Temp;Humidity;BMP_temperature;BMP_pressure;BME280_temperature;BME280_humidity;BME280_pressure;Samples;Min_cycle;Max_cycle;Signal;HPM_P1;HPM_P2
2022/03/06 00:02:11;;;;;;;40.33;27.10;;;;;;;;;;5052450;28;20415;-62
2022/03/06 00:04:36;;;;;;;38.23;25.57;;;;;;;;;;5042985;28;20038;-62
2022/03/06 00:07:01;;;;;;;45.20;28.33;;;;;;;;;;5030949;28;20491;-62
2022/03/06 00:09:27;;;;;;;39.33;26.35;;;;;;;;;;5032795;28;20465;-62
2022/03/06 00:11:52;;;;;;;34.35;23.98;;;;;;;;;;5030498;28;20528;-63
2022/03/06 00:14:17;;;;;;;26.83;20.75;;;;;;;;;;5032408;28;20105;-63
2022/03/06 00:16:43;;;;;;;35.30;25.45;;;;;;;;;;5040764;28;20072;-62
2022/03/06 00:19:08;;;;;;;34.10;23.92;;;;;;;;;;5033761;28;20025;-62
2022/03/06 00:21:37;;;;;;;28.60;22.80;;;;;;;;;;5030792;28;20045;-62
2022/03/06 00:24:03;;;;;;;39.20;25.13;;;;;;;;;;5032005;28;20456;-62
2022/03/06 00:26:28;;;;;;;32.15;22.73;;;;;;;;;;5030439;28;20030;-62
2022/03/06 00:28:54;;;;;;;32.40;22.45;;;;;;;;;;5032303;28;20021;-62
2022/03/06 00:31:19;;;;;;;35.38;23.77;;;;;;;;;;5037466;28;20043;-61
2022/03/06 00:33:45;;;;;;;34.30;23.17;;;;;;;;;;5045102;28;20347;-62
2022/03/06 00:36:10;;;;;;;31.83;24.40;;;;;;;;;;5052005;28;20488;-62
2022/03/06 00:38:35;;;;;;;36.13;22.57;;;;;;;;;;5042084;28;20456;-62
2022/03/06 00:41:00;;;;;;;32.08;21.90;;;;;;;;;;5031660;28;20014;-62
2022/03/06 00:43:26;;;;;;;37.85;25.23;;;;;;;;;;5030267;28;20064;-62
2022/03/06 00:45:51;;;;;;;36.75;26.25;;;;;;;;;;5036170;28;20049;-62
2022/03/06 00:48:16;;;;;;;55.85;29.98;;;;;;;;;;5030030;28;20136;-62
2022/03/06 00:50:41;;;;;;;49.00;33.38;;;;;;;;;;5036159;28;20086;-62
2022/03/06 00:53:07;;;;;;;50.72;33.25;;;;;;;;;;5049905;28;20128;-62
2022/03/06 00:55:33;;;;;;;58.65;33.00;;;;;;;;;;5051377;28;20020;-62
2022/03/06 00:58:05;;;;;;;54.30;32.78;;;;;;;;;;5049507;28;20033;-62
2022/03/06 01:00:30;;;;;;;41.03;28.85;;;;;;;;;;5046401;28;20014;-61
2022/03/06 01:02:55;;;;;;;52.25;29.38;;;;;;;;;;5048955;28;20116;-63
2022/03/06 01:05:20;;;;;;;59.72;29.77;;;;;;;;;;5048743;28;20033;-62
2022/03/06 01:07:45;;;;;;;47.70;27.30;;;;;;;;;;5030152;28;20057;-62
2022/03/06 01:10:11;;;;;;;48.45;30.52;;;;;;;;;;5031119;28;20025;-62
2022/03/06 01:12:36;;;;;;;69.83;29.50;;;;;;;;;;5029569;28;20071;-62
2022/03/06 01:15:01;;;;;;;54.08;36.58;;;;;;;;;;5047704;28;20448;-62
2022/03/06 01:17:26;;;;;;;46.57;28.23;;;;;;;;;;5030485;28;20037;-62
2022/03/06 01:19:51;;;;;;;41.45;28.08;;;;;;;;;;5035361;28;20435;-62
2022/03/06 01:22:16;;;;;;;42.43;26.70;;;;;;;;;;5049576;28;20412;-62
2022/03/06 01:24:42;;;;;;;56.97;36.13;;;;;;;;;;5031327;28;20472;-62
2022/03/06 01:27:07;;;;;;;46.65;30.15;;;;;;;;;;5029278;28;20460;-62
2022/03/06 01:29:32;;;;;;;59.95;34.90;;;;;;;;;;5032570;28;20113;-61
2022/03/06 01:31:58;;;;;;;52.27;31.60;;;;;;;;;;5043297;28;20082;-61
2022/03/06 01:34:23;;;;;;;54.93;32.73;;;;;;;;;;5050648;28;20918;-61
2022/03/06 01:36:48;;;;;;;53.27;30.00;;;;;;;;;;5049598;28;20455;-61
2022/03/06 01:39:14;;;;;;;47.70;27.30;;;;;;;;;;5050942;28;20446;-61
2022/03/06 01:41:39;;;;;;;48.25;27.13;;;;;;;;;;5043925;28;20038;-61
2022/03/06 01:44:04;;;;;;;47.97;29.65;;;;;;;;;;5030845;28;20032;-61
2022/03/06 01:46:30;;;;;;;38.45;29.48;;;;;;;;;;5043824;28;20036;-61
2022/03/06 01:48:55;;;;;;;48.83;26.35;;;;;;;;;;5050525;28;20013;-61
2022/03/06 01:51:20;;;;;;;40.63;25.85;;;;;;;;;;5032458;28;20029;-61
2022/03/06 01:53:45;;;;;;;42.63;28.45;;;;;;;;;;5031029;28;20021;-61
2022/03/06 01:56:11;;;;;;;61.80;29.87;;;;;;;;;;5030309;28;20029;-61
2022/03/06 01:58:36;;;;;;;44.67;28.90;;;;;;;;;;5029622;28;20808;-61
2022/03/06 02:01:02;;;;;;;41.40;27.58;;;;;;;;;;5030839;28;20020;-61
2022/03/06 02:03:27;;;;;;;46.60;29.45;;;;;;;;;;5029121;28;20056;-62
2022/03/06 02:05:52;;;;;;;54.65;30.40;;;;;;;;;;5031160;28;20034;-62
2022/03/06 02:08:17;;;;;;;45.00;27.27;;;;;;;;;;5042217;28;20521;-62
2022/03/06 02:10:43;;;;;;;38.80;27.25;;;;;;;;;;5036740;28;20540;-62
2022/03/06 02:13:08;;;;;;;37.80;26.42;;;;;;;;;;5042186;28;20095;-62
2022/03/06 02:15:33;;;;;;;44.00;26.20;;;;;;;;;;5054791;28;20412;-62
2022/03/06 02:17:59;;;;;;;38.78;27.92;;;;;;;;;;5039216;28;20496;-62
2022/03/06 02:20:25;;;;;;;40.00;26.85;;;;;;;;;;5034710;28;20024;-62
2022/03/06 02:22:54;;;;;;;36.70;27.25;;;;;;;;;;5033297;28;20128;-62
2022/03/06 02:25:23;;;;;;;33.90;24.73;;;;;;;;;;5034028;28;20101;-63
2022/03/06 02:27:49;;;;;;;36.35;25.70;;;;;;;;;;5032893;28;20122;-62
2022/03/06 02:30:16;;;;;;;35.65;26.00;;;;;;;;;;5043948;28;20037;-62
2022/03/06 02:32:42;;;;;;;41.55;26.40;;;;;;;;;;5051803;28;20056;-62
2022/03/06 02:35:08;;;;;;;35.20;25.85;;;;;;;;;;5034051;28;20025;-62
2022/03/06 02:37:33;;;;;;;36.47;25.98;;;;;;;;;;5036437;28;20029;-61
2022/03/06 02:39:59;;;;;;;33.63;23.80;;;;;;;;;;5053695;28;20029;-62
2022/03/06 02:42:25;;;;;;;40.67;25.08;;;;;;;;;;5034696;28;20049;-61
2022/03/06 02:44:51;;;;;;;35.47;25.23;;;;;;;;;;5034171;28;20376;-62
2022/03/06 02:47:16;;;;;;;37.28;25.70;;;;;;;;;;5038545;28;20064;-62
2022/03/06 02:49:41;;;;;;;34.50;26.42;;;;;;;;;;5052129;28;20075;-62
2022/03/06 02:52:08;;;;;;;38.65;23.70;;;;;;;;;;5051141;28;20037;-61
2022/03/06 02:54:33;;;;;;;41.58;25.77;;;;;;;;;;5053486;28;20105;-61
2022/03/06 02:56:58;;;;;;;35.03;26.05;;;;;;;;;;5052147;28;20116;-61
2022/03/06 02:59:23;;;;;;;39.28;26.42;;;;;;;;;;5054040;28;20017;-61
2022/03/06 03:01:49;;;;;;;36.80;25.40;;;;;;;;;;5051833;28;20056;-61
2022/03/06 03:04:14;;;;;;;34.75;23.17;;;;;;;;;;5051965;28;20059;-61
2022/03/06 03:06:39;;;;;;;35.23;26.70;;;;;;;;;;5038201;28;20119;-61
2022/03/06 03:09:05;;;;;;;34.10;25.43;;;;;;;;;;5046955;28;20447;-61
2022/03/06 03:11:31;;;;;;;41.45;24.85;;;;;;;;;;5041478;28;20444;-61
2022/03/06 03:13:56;;;;;;;34.47;25.85;;;;;;;;;;5039841;28;20100;-61
2022/03/06 03:16:21;;;;;;;44.00;27.27;;;;;;;;;;5032253;28;20114;-61
2022/03/06 03:18:46;;;;;;;33.40;23.83;;;;;;;;;;5033559;28;20424;-61
2022/03/06 03:21:11;;;;;;;36.78;23.20;;;;;;;;;;5033211;28;20975;-60
2022/03/06 03:23:37;;;;;;;36.27;26.83;;;;;;;;;;5031740;28;20051;-60
2022/03/06 03:26:02;;;;;;;31.42;23.20;;;;;;;;;;5032169;28;20407;-62
2022/03/06 03:28:28;;;;;;;37.47;24.02;;;;;;;;;;5037225;28;20045;-63
2022/03/06 03:30:53;;;;;;;29.33;24.03;;;;;;;;;;5053239;28;20039;-63
2022/03/06 03:33:18;;;;;;;35.20;26.15;;;;;;;;;;5048160;28;20056;-62
2022/03/06 03:35:43;;;;;;;30.63;24.02;;;;;;;;;;5033242;28;20484;-62
2022/03/06 03:38:09;;;;;;;48.55;24.67;;;;;;;;;;5031658;28;20060;-63
2022/03/06 03:40:34;;;;;;;38.75;25.40;;;;;;;;;;5035082;28;20135;-62
2022/03/06 03:42:59;;;;;;;46.35;26.42;;;;;;;;;;5051220;28;20492;-61
2022/03/06 03:45:24;;;;;;;44.42;25.00;;;;;;;;;;5053016;28;20040;-62
2022/03/06 03:47:49;;;;;;;37.13;26.77;;;;;;;;;;5050340;28;20037;-63
2022/03/06 03:50:14;;;;;;;38.78;25.67;;;;;;;;;;5032853;28;20794;-64
2022/03/06 03:52:39;;;;;;;38.95;25.42;;;;;;;;;;5031283;28;20404;-64
2022/03/06 03:55:05;;;;;;;39.47;25.10;;;;;;;;;;5041255;28;20082;-64
2022/03/06 03:57:30;;;;;;;35.92;25.30;;;;;;;;;;5036869;28;20445;-65
2022/03/06 03:59:55;;;;;;;36.72;25.52;;;;;;;;;;5032761;28;20024;-64
2022/03/06 04:02:21;;;;;;;45.00;24.10;;;;;;;;;;5041508;28;20389;-61
2022/03/06 04:04:46;;;;;;;34.88;24.65;;;;;;;;;;5052618;28;20537;-61
2022/03/06 04:07:11;;;;;;;32.90;24.02;;;;;;;;;;5051075;28;20036;-61
2022/03/06 04:09:36;;;;;;;54.20;24.90;;;;;;;;;;5052559;28;20040;-60
2022/03/06 04:12:02;;;;;;;37.43;25.80;;;;;;;;;;5036430;28;20492;-60
2022/03/06 04:14:27;;;;;;;33.53;24.15;;;;;;;;;;5046076;28;20448;-61
2022/03/06 04:16:52;;;;;;;31.90;22.00;;;;;;;;;;5041771;28;20057;-61
2022/03/06 04:19:17;;;;;;;35.67;23.17;;;;;;;;;;5032613;28;20072;-61
2022/03/06 04:21:42;;;;;;;31.60;22.83;;;;;;;;;;5030912;28;20409;-61
2022/03/06 04:24:08;;;;;;;34.47;22.63;;;;;;;;;;5031478;28;20506;-61
2022/03/06 04:26:33;;;;;;;27.58;20.85;;;;;;;;;;5031045;28;20034;-62
2022/03/06 04:28:58;;;;;;;44.75;23.40;;;;;;;;;;5032047;28;20029;-62
2022/03/06 04:31:23;;;;;;;46.63;25.13;;;;;;;;;;5049634;28;20075;-62
2022/03/06 04:33:49;;;;;;;40.03;25.38;;;;;;;;;;5052077;28;20434;-62
2022/03/06 04:36:14;;;;;;;32.60;25.13;;;;;;;;;;5049965;28;20412;-62
2022/03/06 04:38:41;;;;;;;37.90;24.77;;;;;;;;;;5051813;28;20104;-62
2022/03/06 04:41:06;;;;;;;37.65;26.02;;;;;;;;;;5032595;28;20556;-63
2022/03/06 04:43:31;;;;;;;36.65;27.45;;;;;;;;;;5030406;28;20037;-63
2022/03/06 04:45:56;;;;;;;28.25;23.23;;;;;;;;;;5035556;28;20016;-62
2022/03/06 04:48:21;;;;;;;36.67;27.25;;;;;;;;;;5050145;28;20178;-63
2022/03/06 04:50:46;;;;;;;36.53;26.52;;;;;;;;;;5051236;28;20396;-61
2022/03/06 04:53:12;;;;;;;43.37;29.17;;;;;;;;;;5049645;28;20044;-63
2022/03/06 04:55:37;;;;;;;47.90;29.77;;;;;;;;;;5051759;28;20028;-63
2022/03/06 04:58:02;;;;;;;38.20;29.23;;;;;;;;;;5041682;28;20543;-63
2022/03/06 05:00:27;;;;;;;42.30;26.85;;;;;;;;;;5031242;28;20429;-62
2022/03/06 05:02:52;;;;;;;42.53;28.13;;;;;;;;;;5030257;28;20037;-62
2022/03/06 05:05:18;;;;;;;35.78;26.02;;;;;;;;;;5031552;28;20460;-62
2022/03/06 05:07:43;;;;;;;29.80;23.55;;;;;;;;;;5029778;28;20033;-62
2022/03/06 05:10:11;;;;;;;32.58;23.77;;;;;;;;;;5042043;28;20049;-63
2022/03/06 05:12:37;;;;;;;30.90;23.05;;;;;;;;;;5046056;28;20045;-60
2022/03/06 05:15:03;;;;;;;39.80;23.95;;;;;;;;;;5050834;28;20071;-61
2022/03/06 05:17:28;;;;;;;36.35;26.02;;;;;;;;;;5049409;28;20041;-63
2022/03/06 05:19:53;;;;;;;31.80;22.70;;;;;;;;;;5051392;28;20400;-62
2022/03/06 05:22:18;;;;;;;31.20;22.80;;;;;;;;;;5049132;28;20458;-62
2022/03/06 05:24:43;;;;;;;36.20;25.77;;;;;;;;;;5046307;28;20041;-62
2022/03/06 05:27:08;;;;;;;42.23;30.77;;;;;;;;;;5047345;28;20064;-62
2022/03/06 05:29:34;;;;;;;44.83;29.75;;;;;;;;;;5050256;28;21208;-59
2022/03/06 05:31:59;;;;;;;40.50;29.25;;;;;;;;;;5033320;28;20040;-58
2022/03/06 05:34:24;;;;;;;38.03;28.05;;;;;;;;;;5032729;28;20028;-58
2022/03/06 05:36:49;;;;;;;38.70;30.55;;;;;;;;;;5029059;28;20523;-59
2022/03/06 05:39:14;;;;;;;38.10;23.23;;;;;;;;;;5033693;28;20363;-59
2022/03/06 05:41:39;;;;;;;36.05;25.63;;;;;;;;;;5053909;28;20818;-58
2022/03/06 05:44:05;;;;;;;38.80;26.48;;;;;;;;;;5070948;28;20024;-58
2022/03/06 05:46:30;;;;;;;32.97;26.80;;;;;;;;;;5036687;28;20017;-59
2022/03/06 05:48:55;;;;;;;46.93;31.87;;;;;;;;;;5030714;28;20467;-58
2022/03/06 05:51:20;;;;;;;46.23;31.40;;;;;;;;;;5029525;28;20408;-58
2022/03/06 05:53:45;;;;;;;39.67;31.50;;;;;;;;;;5030468;28;20776;-58
2022/03/06 05:56:10;;;;;;;36.60;28.33;;;;;;;;;;5030658;28;20096;-59
2022/03/06 05:58:35;;;;;;;45.17;28.80;;;;;;;;;;5029340;28;20045;-58
2022/03/06 06:01:01;;;;;;;41.23;27.47;;;;;;;;;;5031152;28;20543;-59
2022/03/06 06:03:26;;;;;;;36.50;27.90;;;;;;;;;;5036433;28;20103;-58
2022/03/06 06:05:52;;;;;;;40.38;27.30;;;;;;;;;;5049217;28;20022;-59
2022/03/06 06:08:17;;;;;;;41.27;26.03;;;;;;;;;;5029046;28;20412;-58
2022/03/06 06:10:43;;;;;;;36.67;25.38;;;;;;;;;;5045331;28;20450;-58
2022/03/06 06:13:09;;;;;;;38.88;29.02;;;;;;;;;;5048881;28;20045;-58
2022/03/06 06:15:35;;;;;;;43.20;27.98;;;;;;;;;;5050506;28;20108;-58
2022/03/06 06:18:01;;;;;;;45.38;28.75;;;;;;;;;;5049034;28;20030;-58
2022/03/06 06:20:26;;;;;;;42.50;27.45;;;;;;;;;;5050499;28;20014;-58
2022/03/06 06:22:53;;;;;;;37.63;26.00;;;;;;;;;;5048436;28;20076;-58
2022/03/06 06:25:18;;;;;;;43.55;25.17;;;;;;;;;;5044362;28;20041;-59
2022/03/06 06:27:43;;;;;;;38.30;28.02;;;;;;;;;;5045241;28;20041;-59
2022/03/06 06:30:08;;;;;;;37.38;24.77;;;;;;;;;;5047321;28;20021;-58
2022/03/06 06:32:34;;;;;;;31.13;21.80;;;;;;;;;;5045415;28;20641;-58
2022/03/06 06:34:59;;;;;;;33.60;23.90;;;;;;;;;;5048209;28;20021;-58
2022/03/06 06:37:24;;;;;;;39.15;26.58;;;;;;;;;;5047864;28;20531;-58
2022/03/06 06:39:49;;;;;;;40.67;29.38;;;;;;;;;;5048546;28;20013;-59
2022/03/06 06:42:14;;;;;;;32.13;24.65;;;;;;;;;;5048180;28;20068;-59
2022/03/06 06:44:40;;;;;;;34.00;26.23;;;;;;;;;;5049333;28;20033;-59
2022/03/06 06:47:05;;;;;;;37.90;23.85;;;;;;;;;;5046591;28;20041;-59
2022/03/06 06:49:30;;;;;;;31.27;22.85;;;;;;;;;;5049246;28;20408;-59
2022/03/06 06:51:55;;;;;;;32.70;23.20;;;;;;;;;;5052227;28;20033;-60
2022/03/06 06:54:20;;;;;;;36.47;25.07;;;;;;;;;;5055058;28;20432;-59
2022/03/06 06:56:45;;;;;;;32.97;25.20;;;;;;;;;;5045392;28;21005;-59
2022/03/06 06:59:11;;;;;;;34.97;24.27;;;;;;;;;;5048729;28;20021;-59
2022/03/06 07:01:36;;;;;;;36.22;26.45;;;;;;;;;;5050219;28;20037;-59
2022/03/06 07:04:02;;;;;;;35.05;25.10;;;;;;;;;;5049187;28;20374;-59
2022/03/06 07:06:27;;;;;;;31.65;24.13;;;;;;;;;;5031199;28;20550;-59
2022/03/06 07:08:52;;;;;;;36.17;25.10;;;;;;;;;;5033335;28;20013;-59
2022/03/06 07:11:17;;;;;;;36.70;24.33;;;;;;;;;;5049519;28;20043;-59
2022/03/06 07:13:42;;;;;;;38.60;24.23;;;;;;;;;;5050913;28;20025;-59
2022/03/06 07:16:07;;;;;;;33.70;24.23;;;;;;;;;;5042999;28;20463;-59
2022/03/06 07:18:32;;;;;;;29.35;24.88;;;;;;;;;;5050677;28;20044;-59
2022/03/06 07:20:58;;;;;;;31.17;23.30;;;;;;;;;;5040212;28;20029;-59
2022/03/06 07:23:23;;;;;;;31.15;22.58;;;;;;;;;;5047794;28;20512;-59
2022/03/06 07:25:48;;;;;;;32.08;26.10;;;;;;;;;;5040448;28;20128;-59
2022/03/06 07:28:13;;;;;;;42.80;25.88;;;;;;;;;;5035069;28;20508;-59
2022/03/06 07:30:39;;;;;;;34.92;26.92;;;;;;;;;;5033001;28;20053;-59
2022/03/06 07:33:04;;;;;;;26.08;21.63;;;;;;;;;;5030561;28;20099;-59
2022/03/06 07:35:30;;;;;;;29.23;23.77;;;;;;;;;;5033539;28;20024;-59
2022/03/06 07:37:55;;;;;;;29.92;24.40;;;;;;;;;;5032589;28;20131;-59
2022/03/06 07:40:22;;;;;;;41.97;27.40;;;;;;;;;;5047782;28;20029;-59
2022/03/06 07:42:47;;;;;;;37.85;25.20;;;;;;;;;;5042851;28;20464;-58
2022/03/06 07:45:13;;;;;;;33.13;25.27;;;;;;;;;;5033309;28;20605;-59
2022/03/06 07:47:38;;;;;;;24.65;21.63;;;;;;;;;;5030316;28;20484;-59
2022/03/06 07:50:04;;;;;;;22.58;18.92;;;;;;;;;;5032252;28;20026;-59
2022/03/06 07:52:29;;;;;;;22.58;19.83;;;;;;;;;;5030619;28;20041;-59
2022/03/06 07:54:54;;;;;;;27.70;18.30;;;;;;;;;;5033505;28;20022;-59
2022/03/06 07:57:20;;;;;;;32.83;23.67;;;;;;;;;;5030784;28;20452;-59
2022/03/06 07:59:45;;;;;;;21.17;17.83;;;;;;;;;;5045543;28;20045;-59
2022/03/06 08:02:10;;;;;;;24.73;17.13;;;;;;;;;;5048688;28;20458;-59
2022/03/06 08:04:35;;;;;;;23.65;16.30;;;;;;;;;;5047501;28;20036;-59
2022/03/06 08:07:00;;;;;;;28.33;15.70;;;;;;;;;;5047567;28;20041;-59
2022/03/06 08:09:25;;;;;;;20.87;17.13;;;;;;;;;;5048042;28;20048;-59
2022/03/06 08:11:51;;;;;;;20.52;16.27;;;;;;;;;;5048373;28;20037;-59
2022/03/06 08:14:17;;;;;;;23.95;17.85;;;;;;;;;;5046797;28;20418;-59
2022/03/06 08:16:42;;;;;;;18.50;14.27;;;;;;;;;;5029812;28;20040;-59
2022/03/06 08:19:07;;;;;;;20.90;16.53;;;;;;;;;;5032036;28;20017;-59
2022/03/06 08:21:32;;;;;;;17.80;14.75;;;;;;;;;;5031185;28;20823;-60
2022/03/06 08:23:58;;;;;;;16.20;14.23;;;;;;;;;;5031887;28;20401;-59
2022/03/06 08:26:23;;;;;;;14.17;10.53;;;;;;;;;;5037948;28;20154;-60
2022/03/06 08:28:48;;;;;;;16.52;12.27;;;;;;;;;;5032291;28;20498;-59
2022/03/06 08:31:14;;;;;;;12.55;10.52;;;;;;;;;;5037843;28;20025;-59
2022/03/06 08:33:39;;;;;;;17.95;11.70;;;;;;;;;;5049194;28;20025;-59
2022/03/06 08:36:04;;;;;;;16.10;11.20;;;;;;;;;;5050020;28;20025;-60
2022/03/06 08:38:29;;;;;;;17.65;13.23;;;;;;;;;;5034191;28;20048;-60
2022/03/06 08:40:54;;;;;;;11.87;9.40;;;;;;;;;;5051472;28;20027;-59
2022/03/06 08:43:19;;;;;;;15.10;11.60;;;;;;;;;;5049568;28;20452;-59
2022/03/06 08:45:45;;;;;;;15.40;12.38;;;;;;;;;;5050520;28;20423;-59
2022/03/06 08:48:10;;;;;;;10.70;8.82;;;;;;;;;;5033027;28;20452;-59
2022/03/06 08:50:35;;;;;;;15.73;10.40;;;;;;;;;;5035199;28;20024;-59
2022/03/06 08:53:00;;;;;;;10.87;9.53;;;;;;;;;;5046781;28;20563;-60
2022/03/06 08:55:25;;;;;;;13.43;9.23;;;;;;;;;;5038625;28;20075;-59
2022/03/06 08:57:50;;;;;;;12.87;11.57;;;;;;;;;;5049542;28;20079;-59
2022/03/06 09:00:16;;;;;;;17.80;11.85;;;;;;;;;;5048279;28;20831;-59
2022/03/06 09:02:41;;;;;;;10.45;8.63;;;;;;;;;;5049588;28;20445;-59
2022/03/06 09:05:06;;;;;;;11.03;8.50;;;;;;;;;;5048137;28;20036;-60
2022/03/06 09:07:31;;;;;;;23.40;12.35;;;;;;;;;;5045842;28;20128;-60
2022/03/06 09:09:57;;;;;;;10.48;8.07;;;;;;;;;;5049923;28;20384;-60
2022/03/06 09:12:22;;;;;;;9.17;8.07;;;;;;;;;;5041995;28;20045;-59
2022/03/06 09:14:47;;;;;;;10.20;8.00;;;;;;;;;;5037655;28;20810;-59
2022/03/06 09:17:12;;;;;;;12.65;8.35;;;;;;;;;;5047318;28;20101;-59
2022/03/06 09:19:37;;;;;;;11.73;10.43;;;;;;;;;;5050768;28;20056;-59
2022/03/06 09:22:03;;;;;;;8.60;7.53;;;;;;;;;;5045800;28;20451;-59
2022/03/06 09:24:28;;;;;;;10.98;6.50;;;;;;;;;;5030584;28;20052;-59
2022/03/06 09:26:53;;;;;;;9.02;7.93;;;;;;;;;;5029188;28;20095;-59
2022/03/06 09:29:18;;;;;;;7.57;6.28;;;;;;;;;;5030956;28;20021;-59
2022/03/06 09:31:44;;;;;;;10.23;6.80;;;;;;;;;;5046072;28;20037;-59
2022/03/06 09:34:11;;;;;;;7.32;6.38;;;;;;;;;;5050437;28;20494;-59
2022/03/06 09:36:36;;;;;;;6.95;6.25;;;;;;;;;;5049103;28;20385;-59
2022/03/06 09:39:02;;;;;;;8.27;7.05;;;;;;;;;;5050590;28;20076;-58
2022/03/06 09:41:27;;;;;;;10.20;7.07;;;;;;;;;;5040240;28;20383;-59
2022/03/06 09:43:56;;;;;;;9.30;8.32;;;;;;;;;;5049834;28;20431;-59
2022/03/06 09:46:22;;;;;;;;;;;;;;;;;;5048961;28;20093;-59
2022/03/06 09:48:47;;;;;;;7.00;6.28;;;;;;;;;;5062982;28;20000;-59
2022/03/06 09:51:12;;;;;;;16.15;7.50;;;;;;;;;;5049548;28;20028;-59
2022/03/06 09:53:37;;;;;;;11.98;7.07;;;;;;;;;;5048628;28;20123;-59
2022/03/06 09:56:02;;;;;;;8.70;6.32;;;;;;;;;;5050215;28;20024;-59
2022/03/06 09:58:27;;;;;;;10.05;7.22;;;;;;;;;;5055340;28;20438;-59
2022/03/06 10:00:53;;;;;;;11.00;7.43;;;;;;;;;;5059890;28;20100;-60
2022/03/06 10:03:19;;;;;;;9.18;7.30;;;;;;;;;;5048624;28;20048;-59
2022/03/06 10:05:44;;;;;;;9.60;7.20;;;;;;;;;;5049695;28;20535;-59
2022/03/06 10:08:20;;;;;;;11.07;7.78;;;;;;;;;;5047666;28;20136;-59
2022/03/06 10:10:46;;;;;;;9.95;7.13;;;;;;;;;;5050360;28;20070;-59
2022/03/06 10:13:38;;;;;;;7.80;6.95;;;;;;;;;;5042261;28;20562;-59
2022/03/06 10:16:03;;;;;;;12.32;7.55;;;;;;;;;;5030882;28;20068;-59
2022/03/06 10:18:29;;;;;;;8.68;7.25;;;;;;;;;;5033553;28;20044;-59
2022/03/06 10:20:59;;;;;;;11.57;8.52;;;;;;;;;;5050531;28;20384;-59
2022/03/06 10:23:25;;;;;;;9.23;7.43;;;;;;;;;;5048862;28;20037;-58
2022/03/06 10:26:04;;;;;;;7.45;6.75;;;;;;;;;;5049859;28;20029;-59
2022/03/06 10:28:30;;;;;;;22.70;7.10;;;;;;;;;;5048531;28;20044;-59
2022/03/06 10:31:02;;;;;;;12.90;6.57;;;;;;;;;;5040550;28;20172;-59
2022/03/06 10:33:27;;;;;;;14.00;9.15;;;;;;;;;;5028983;28;20045;-59
2022/03/06 10:35:55;;;;;;;6.35;5.22;;;;;;;;;;5034163;28;20022;-59
2022/03/06 10:38:27;;;;;;;6.82;6.10;;;;;;;;;;5048579;28;20040;-59
2022/03/06 10:40:53;;;;;;;9.05;7.18;;;;;;;;;;5053681;28;20108;-59
2022/03/06 10:43:38;;;;;;;7.70;6.53;;;;;;;;;;5052192;28;20178;-59
2022/03/06 10:46:05;;;;;;;7.95;6.43;;;;;;;;;;5050523;28;20032;-58
2022/03/06 10:48:30;;;;;;;12.18;7.40;;;;;;;;;;5031967;28;20037;-59
2022/03/06 10:50:59;;;;;;;6.07;5.47;;;;;;;;;;5033894;28;20036;-59
2022/03/06 10:53:24;;;;;;;8.07;6.05;;;;;;;;;;5032115;28;20057;-59
2022/03/06 10:55:50;;;;;;;8.60;5.75;;;;;;;;;;5033748;28;20075;-59
2022/03/06 10:58:17;;;;;;;8.27;6.30;;;;;;;;;;5032955;28;20052;-59
2022/03/06 11:00:42;;;;;;;7.82;6.72;;;;;;;;;;5033767;28;20037;-59
2022/03/06 11:03:10;;;;;;;8.65;6.22;;;;;;;;;;5031523;28;20111;-59
2022/03/06 11:05:36;;;;;;;8.23;7.43;;;;;;;;;;5033743;28;20609;-59
2022/03/06 11:08:01;;;;;;;7.10;6.40;;;;;;;;;;5031386;28;20108;-59
2022/03/06 11:10:28;;;;;;;6.40;5.32;;;;;;;;;;5032948;28;20433;-59
2022/03/06 11:12:53;;;;;;;6.97;5.55;;;;;;;;;;5041243;28;20044;-59
2022/03/06 11:15:18;;;;;;;7.43;6.30;;;;;;;;;;5053065;28;20009;-59
2022/03/06 11:17:44;;;;;;;6.82;5.28;;;;;;;;;;5051574;28;20033;-58
2022/03/06 11:20:09;;;;;;;7.07;5.70;;;;;;;;;;5053152;28;20021;-59
2022/03/06 11:22:49;;;;;;;8.68;7.13;;;;;;;;;;5051653;28;20478;-59
2022/03/06 11:25:17;;;;;;;13.45;7.70;;;;;;;;;;5052458;28;20040;-58
2022/03/06 11:27:51;;;;;;;9.18;7.40;;;;;;;;;;5034366;28;20504;-59
2022/03/06 11:30:20;;;;;;;6.65;5.93;;;;;;;;;;5032551;28;20037;-59
2022/03/06 11:33:03;;;;;;;8.00;7.20;;;;;;;;;;5031317;28;20087;-58
2022/03/06 11:35:34;;;;;;;11.80;7.35;;;;;;;;;;5032962;28;20022;-59
2022/03/06 11:37:59;;;;;;;9.63;7.38;;;;;;;;;;5050934;28;20061;-59
2022/03/06 11:40:48;;;;;;;7.75;6.95;;;;;;;;;;5052895;28;20045;-58
2022/03/06 11:43:29;;;;;;;9.40;6.85;;;;;;;;;;5051087;28;20392;-59
2022/03/06 11:46:15;;;;;;;8.30;6.65;;;;;;;;;;5036058;28;20030;-59
2022/03/06 11:48:44;;;;;;;11.95;7.05;;;;;;;;;;5031035;28;20520;-59
2022/03/06 11:51:15;;;;;;;7.75;6.47;;;;;;;;;;5032602;28;20048;-59
2022/03/06 11:53:57;;;;;;;10.27;7.75;;;;;;;;;;5031197;28;20098;-59
2022/03/06 11:56:31;;;;;;;12.00;8.10;;;;;;;;;;5035598;28;20631;-59
2022/03/06 11:58:57;;;;;;;7.10;6.45;;;;;;;;;;5036446;28;20026;-59
2022/03/06 12:01:25;;;;;;;8.88;7.15;;;;;;;;;;5050332;28;20017;-60
2022/03/06 12:03:51;;;;;;;;;;;;;;;;;;5051859;28;20028;-59
2022/03/06 12:06:17;;;;;;;7.73;6.87;;;;;;;;;;5048659;28;19924;-58
2022/03/06 12:08:43;;;;;;;12.85;7.85;;;;;;;;;;5038518;28;20444;-58
2022/03/06 12:11:08;;;;;;;9.50;7.18;;;;;;;;;;5050174;28;20482;-58
2022/03/06 12:13:33;;;;;;;8.55;7.60;;;;;;;;;;5040624;28;20045;-58
2022/03/06 12:16:01;;;;;;;9.00;8.05;;;;;;;;;;5042835;28;20099;-59
2022/03/06 12:18:26;;;;;;;10.30;6.05;;;;;;;;;;5031223;28;20040;-58
2022/03/06 12:20:52;;;;;;;9.48;8.30;;;;;;;;;;5031942;28;20017;-59
2022/03/06 12:23:24;;;;;;;9.67;6.97;;;;;;;;;;5030122;28;20037;-59
2022/03/06 12:25:50;;;;;;;8.27;7.43;;;;;;;;;;4935175;28;20435;-59
2022/03/06 12:28:16;;;;;;;8.75;7.85;;;;;;;;;;5050099;28;20044;-59
2022/03/06 12:30:42;;;;;;;8.00;7.20;;;;;;;;;;4984636;28;20103;-58
2022/03/06 12:33:25;;;;;;;7.97;7.10;;;;;;;;;;5021060;28;20178;-59
2022/03/06 12:35:50;;;;;;;13.50;8.45;;;;;;;;;;5050419;28;21000;-58
2022/03/06 12:38:21;;;;;;;11.40;8.57;;;;;;;;;;5031789;28;20030;-58
2022/03/06 12:40:47;;;;;;;9.35;8.45;;;;;;;;;;5051426;28;20408;-58
2022/03/06 12:43:17;;;;;;;10.17;8.37;;;;;;;;;;5049678;28;20112;-59
2022/03/06 12:45:43;;;;;;;10.23;7.30;;;;;;;;;;4999236;28;20458;-60
2022/03/06 12:48:09;;;;;;;10.63;7.05;;;;;;;;;;4963831;28;20041;-59
2022/03/06 12:50:35;;;;;;;17.15;10.13;;;;;;;;;;5051344;28;20009;-58
2022/03/06 12:53:00;;;;;;;7.82;6.38;;;;;;;;;;4928875;28;20045;-59
2022/03/06 12:55:25;;;;;;;10.00;8.95;;;;;;;;;;5031636;28;20071;-58
2022/03/06 12:57:55;;;;;;;8.95;6.60;;;;;;;;;;4995169;28;20034;-58
2022/03/06 13:00:23;;;;;;;17.52;7.93;;;;;;;;;;5031374;28;20031;-58
2022/03/06 13:02:55;;;;;;;8.20;7.05;;;;;;;;;;4967901;28;20040;-59
2022/03/06 13:05:22;;;;;;;14.10;9.13;;;;;;;;;;5034839;28;20021;-58
2022/03/06 13:07:47;;;;;;;9.18;8.27;;;;;;;;;;5049045;28;20037;-59
2022/03/06 13:10:14;;;;;;;12.43;7.32;;;;;;;;;;5050588;28;20582;-58
2022/03/06 13:12:40;;;;;;;9.75;7.50;;;;;;;;;;5049560;28;20045;-58
2022/03/06 13:15:11;;;;;;;9.35;8.40;;;;;;;;;;5048696;28;20414;-58
2022/03/06 13:17:37;;;;;;;10.88;8.20;;;;;;;;;;5032921;28;20555;-58
2022/03/06 13:20:02;;;;;;;10.57;9.45;;;;;;;;;;5049494;28;20088;-58
2022/03/06 13:22:27;;;;;;;14.82;8.20;;;;;;;;;;5035050;28;20411;-57
2022/03/06 13:24:53;;;;;;;10.25;8.68;;;;;;;;;;5050248;28;20068;-57
2022/03/06 13:27:23;;;;;;;11.98;7.97;;;;;;;;;;5049118;28;20590;-58
2022/03/06 13:30:06;;;;;;;10.95;7.78;;;;;;;;;;5049952;28;20020;-58
2022/03/06 13:32:42;;;;;;;10.32;7.28;;;;;;;;;;5048839;28;20037;-58
2022/03/06 13:35:08;;;;;;;7.72;6.45;;;;;;;;;;5050878;28;20047;-58
2022/03/06 13:37:38;;;;;;;12.57;6.78;;;;;;;;;;5049370;28;20037;-58
2022/03/06 13:40:08;;;;;;;8.55;7.20;;;;;;;;;;5048267;28;20091;-58
2022/03/06 13:42:34;;;;;;;12.35;7.68;;;;;;;;;;5049168;28;20029;-58
2022/03/06 13:45:00;;;;;;;11.32;7.18;;;;;;;;;;5050487;28;20097;-58
2022/03/06 13:47:25;;;;;;;13.95;8.10;;;;;;;;;;5048581;28;20036;-58
2022/03/06 13:50:00;;;;;;;10.52;9.00;;;;;;;;;;5050497;28;20036;-58
2022/03/06 13:52:33;;;;;;;11.77;9.07;;;;;;;;;;5033308;28;20408;-58
2022/03/06 13:55:02;;;;;;;7.35;5.75;;;;;;;;;;5031346;28;20037;-58
2022/03/06 13:57:27;;;;;;;13.05;7.88;;;;;;;;;;5038117;28;20033;-58
2022/03/06 13:59:52;;;;;;;13.57;8.07;;;;;;;;;;5030795;28;20385;-58
2022/03/06 14:02:22;;;;;;;10.70;7.50;;;;;;;;;;5040550;28;20033;-58
2022/03/06 14:04:48;;;;;;;10.82;7.28;;;;;;;;;;5031279;28;20025;-58
2022/03/06 14:07:13;;;;;;;12.68;8.15;;;;;;;;;;5029043;28;20032;-58
2022/03/06 14:09:48;;;;;;;7.83;6.77;;;;;;;;;;5032723;28;20021;-58
2022/03/06 14:12:15;;;;;;;10.05;6.78;;;;;;;;;;5049200;28;20060;-58
2022/03/06 14:14:45;;;;;;;13.18;8.38;;;;;;;;;;5055548;28;20404;-58
2022/03/06 14:17:12;;;;;;;7.82;6.78;;;;;;;;;;5052422;28;20057;-58
2022/03/06 14:19:38;;;;;;;9.07;6.80;;;;;;;;;;5049094;28;20489;-58
2022/03/06 14:22:03;;;;;;;7.50;6.65;;;;;;;;;;5033451;28;20034;-58